Time;durP1;ratioP1;P1;durP2;ratioP2;P2;SDS_P1;SDS_P2;PMS_P1;PMS_P2;Temp;Humidity;BMP_temperature;BMP_pressure;BME280_temperature;BME280_humidity;BME280_pressure;Samples;Min_cycle;Max_cycle;Signal;HPM_P1;HPM_P2
2022/05/25 00:01:08;;;;;;;12.60;11.18;;;10.40;99.90;;;;;;5028201;28;20056;-72
2022/05/25 00:03:34;;;;;;;10.77;9.73;;;10.40;99.90;;;;;;5026329;28;20617;-72
2022/05/25 00:06:02;;;;;;;11.82;10.75;;;10.30;99.90;;;;;;5012336;28;20471;-72
2022/05/25 00:08:28;;;;;;;12.88;11.77;;;10.40;99.90;;;;;;5024680;28;20103;-72
2022/05/25 00:10:54;;;;;;;11.88;10.73;;;10.40;99.90;;;;;;5027797;28;20053;-72
2022/05/25 00:13:20;;;;;;;12.35;11.15;;;10.30;99.90;;;;;;5010861;28;20045;-72
2022/05/25 00:15:46;;;;;;;12.68;11.52;;;10.30;99.90;;;;;;4993431;28;20518;-72
2022/05/25 00:18:12;;;;;;;12.27;11.18;;;10.30;99.90;;;;;;5027956;28;20099;-72
2022/05/25 00:20:37;;;;;;;12.73;11.55;;;10.30;99.90;;;;;;5010589;28;20045;-72
2022/05/25 00:23:03;;;;;;;13.50;12.30;;;10.30;99.90;;;;;;5023816;28;21007;-72
2022/05/25 00:25:33;;;;;;;13.50;12.20;;;10.30;99.90;;;;;;5009487;28;20063;-72
2022/05/25 00:28:08;;;;;;;14.80;13.50;;;10.30;99.90;;;;;;5027512;28;20037;-72
2022/05/25 00:30:34;;;;;;;14.63;13.23;;;10.30;99.90;;;;;;5010474;28;20295;-72
2022/05/25 00:33:01;;;;;;;14.10;12.90;;;10.30;99.90;;;;;;5010593;28;20408;-72
2022/05/25 00:35:31;;;;;;;14.82;13.48;;;10.30;99.90;;;;;;5027324;28;20495;-72
2022/05/25 00:37:58;;;;;;;14.32;12.90;;;10.30;99.90;;;;;;5010615;28;20049;-72
2022/05/25 00:40:33;;;;;;;13.30;12.20;;;10.30;99.90;;;;;;5008370;28;20049;-72
2022/05/25 00:42:59;;;;;;;14.18;12.98;;;10.30;99.90;;;;;;5010835;28;20045;-72
2022/05/25 00:45:25;;;;;;;14.52;13.30;;;10.20;99.90;;;;;;5010298;28;20100;-72
2022/05/25 00:47:52;;;;;;;15.10;13.90;;;10.20;99.90;;;;;;5010423;28;20454;-72
2022/05/25 00:50:22;;;;;;;16.63;15.15;;;10.20;99.90;;;;;;5010261;28;20049;-72
2022/05/25 00:52:49;;;;;;;14.52;13.27;;;10.10;99.90;;;;;;5010428;28;20033;-72
2022/05/25 00:55:28;;;;;;;13.98;12.68;;;10.10;99.90;;;;;;5026918;28;20132;-72
2022/05/25 00:57:58;;;;;;;16.15;14.65;;;10.10;99.90;;;;;;5027521;28;20392;-72
2022/05/25 01:00:27;;;;;;;14.48;13.18;;;10.10;99.90;;;;;;5026671;28;20055;-72
2022/05/25 01:03:00;;;;;;;14.38;12.98;;;10.10;99.90;;;;;;5024858;28;20061;-72
2022/05/25 01:05:31;;;;;;;13.85;12.60;;;10.00;99.90;;;;;;5009850;28;20073;-72
2022/05/25 01:08:25;;;;;;;13.75;12.55;;;10.00;99.90;;;;;;5024085;28;20566;-72
2022/05/25 01:11:09;;;;;;;13.23;11.90;;;10.10;99.90;;;;;;5010561;28;20188;-72
2022/05/25 01:14:07;;;;;;;13.85;12.55;;;10.00;99.90;;;;;;5026598;28;20041;-72
2022/05/25 01:16:35;;;;;;;14.30;12.98;;;10.00;99.90;;;;;;5026581;28;20057;-71
2022/05/25 01:19:39;;;;;;;15.93;14.43;;;10.00;99.90;;;;;;5027043;28;20049;-71
2022/05/25 01:22:34;;;;;;;16.45;14.93;;;10.00;99.90;;;;;;5023744;28;20057;-71
2022/05/25 01:25:56;;;;;;;15.82;14.23;;;10.00;99.90;;;;;;5026730;28;20389;-71
2022/05/25 01:28:46;;;;;;;14.65;13.40;;;9.90;99.90;;;;;;5010409;28;20088;-71
2022/05/25 01:31:21;;;;;;;15.05;13.73;;;9.90;99.90;;;;;;5026821;28;20053;-71
2022/05/25 01:33:54;;;;;;;13.35;12.18;;;9.90;99.90;;;;;;5024220;28;20128;-71
2022/05/25 01:36:28;;;;;;;14.93;13.50;;;9.90;99.90;;;;;;5026695;28;20045;-71
2022/05/25 01:39:04;;;;;;;15.63;14.20;;;9.80;99.90;;;;;;5008708;28;20296;-71
2022/05/25 01:41:57;;;;;;;19.40;17.48;;;9.90;99.90;;;;;;5009445;28;20045;-71
2022/05/25 01:44:27;;;;;;;16.95;15.35;;;9.80;99.90;;;;;;5025775;28;20038;-71
2022/05/25 01:47:01;;;;;;;14.10;12.77;;;9.80;99.90;;;;;;5009337;28;20518;-71
2022/05/25 01:49:40;;;;;;;17.23;15.65;;;9.80;99.90;;;;;;5007056;28;20132;-71
2022/05/25 01:52:10;;;;;;;14.88;13.48;;;9.80;99.90;;;;;;5005921;28;20045;-71
2022/05/25 01:54:42;;;;;;;16.30;14.75;;;9.70;99.90;;;;;;5023985;28;20431;-71
2022/05/25 01:57:11;;;;;;;16.40;14.90;;;9.80;99.90;;;;;;5023826;28;20503;-71
2022/05/25 01:59:37;;;;;;;15.23;13.82;;;9.80;99.90;;;;;;5023425;28;20129;-71
2022/05/25 02:04:52;;;;;;;16.50;14.98;;;9.80;99.90;;;;;;5020585;28;20057;-71
2022/05/25 02:07:58;;;;;;;15.80;14.18;;;9.80;99.90;;;;;;5008911;28;20049;-71
2022/05/25 02:10:39;;;;;;;16.00;14.60;;;9.80;99.90;;;;;;5005047;28;20061;-71
2022/05/25 02:13:10;;;;;;;14.88;13.48;;;9.80;99.90;;;;;;5011276;28;20053;-71
2022/05/25 02:16:06;;;;;;;14.35;13.05;;;9.70;99.90;;;;;;5027315;28;20041;-71
2022/05/25 02:18:32;;;;;;;16.10;14.68;;;9.70;99.90;;;;;;5007147;28;20396;-71
2022/05/25 02:21:16;;;;;;;17.65;16.02;;;9.70;99.90;;;;;;5021175;28;20057;-71
2022/05/25 02:23:54;;;;;;;16.92;15.52;;;9.70;99.90;;;;;;5004264;28;20041;-71
2022/05/25 02:26:28;;;;;;;16.48;14.88;;;9.70;99.90;;;;;;5027240;28;20120;-71
2022/05/25 02:29:26;;;;;;;17.02;15.43;;;9.70;99.90;;;;;;5022805;28;20049;-71
2022/05/25 02:31:59;;;;;;;20.23;18.42;;;9.60;99.90;;;;;;5024163;28;20057;-71
2022/05/25 02:34:26;;;;;;;22.10;19.90;;;9.70;99.90;;;;;;5018095;28;20577;-71
2022/05/25 02:36:54;;;;;;;19.77;17.98;;;9.60;99.90;;;;;;5026335;28;20491;-72
2022/05/25 02:39:21;;;;;;;22.77;20.45;;;9.60;99.90;;;;;;5008659;28;20061;-71
2022/05/25 02:41:55;;;;;;;21.70;19.40;;;9.60;99.90;;;;;;5025357;28;21222;-71
2022/05/25 02:44:21;;;;;;;21.83;19.83;;;9.60;99.90;;;;;;5009446;28;20041;-71
2022/05/25 02:46:48;;;;;;;21.58;19.38;;;9.60;99.90;;;;;;5009003;28;20515;-71
2022/05/25 02:49:15;;;;;;;19.05;17.35;;;9.60;99.90;;;;;;5023795;28;20099;-71
2022/05/25 02:51:41;;;;;;;23.25;21.05;;;9.60;99.90;;;;;;5026167;28;20051;-71
2022/05/25 02:54:07;;;;;;;20.40;18.42;;;9.60;99.90;;;;;;5025781;28;20415;-71
2022/05/25 02:56:33;;;;;;;20.83;18.83;;;9.60;99.90;;;;;;5025550;28;20168;-71
2022/05/25 02:58:59;;;;;;;21.52;19.38;;;9.60;99.90;;;;;;5007307;28;20042;-71
2022/05/25 03:01:25;;;;;;;21.08;19.08;;;9.60;99.90;;;;;;5025625;28;20040;-74
2022/05/25 03:03:51;;;;;;;21.10;19.05;;;9.60;99.90;;;;;;5007439;28;20069;-71
2022/05/25 03:06:18;;;;;;;21.10;19.10;;;9.50;99.90;;;;;;5008674;28;20084;-72
2022/05/25 03:08:47;;;;;;;26.60;23.83;;;9.60;99.90;;;;;;5007716;28;20037;-72
2022/05/25 03:11:13;;;;;;;21.73;19.52;;;9.50;99.90;;;;;;4991029;28;20050;-71
2022/05/25 03:13:41;;;;;;;22.15;19.95;;;9.50;99.90;;;;;;5025070;28;20392;-71
2022/05/25 03:16:13;;;;;;;24.15;21.80;;;9.60;99.90;;;;;;4992214;28;20057;-71
2022/05/25 03:18:39;;;;;;;23.80;21.42;;;9.50;99.90;;;;;;5009248;28;20080;-71
2022/05/25 03:21:04;;;;;;;22.13;20.13;;;9.50;99.90;;;;;;5008405;28;20056;-71
2022/05/25 03:23:30;;;;;;;22.63;20.23;;;9.50;99.90;;;;;;5005045;28;20045;-71
2022/05/25 03:25:56;;;;;;;21.20;19.30;;;9.50;99.90;;;;;;5025061;28;20499;-71
2022/05/25 03:28:22;;;;;;;20.63;18.80;;;9.50;99.90;;;;;;5007623;28;20049;-71
2022/05/25 03:30:48;;;;;;;21.58;19.58;;;9.50;99.90;;;;;;4991636;28;20104;-71
2022/05/25 03:33:17;;;;;;;20.30;18.23;;;9.50;99.90;;;;;;4995652;28;20495;-72
2022/05/25 03:35:44;;;;;;;22.92;20.73;;;9.50;99.90;;;;;;4995918;28;20041;-71
2022/05/25 03:38:10;;;;;;;24.05;21.60;;;9.50;99.90;;;;;;5026825;28;20038;-72
2022/05/25 03:40:37;;;;;;;21.10;19.02;;;9.60;99.90;;;;;;5012102;28;20050;-71
2022/05/25 03:43:08;;;;;;;24.00;21.67;;;9.60;99.90;;;;;;5011174;28;20385;-71
2022/05/25 03:45:34;;;;;;;24.90;22.30;;;9.60;99.90;;;;;;5012711;28;20046;-71
2022/05/25 03:48:00;;;;;;;23.27;20.92;;;9.50;99.90;;;;;;4995447;28;20044;-71
2022/05/25 03:50:26;;;;;;;22.23;20.10;;;9.60;99.90;;;;;;5011647;28;20048;-71
2022/05/25 03:52:52;;;;;;;22.42;20.13;;;9.60;99.90;;;;;;5012021;28;20451;-71
2022/05/25 03:55:18;;;;;;;22.30;20.20;;;9.50;99.90;;;;;;5011438;28;20049;-71
2022/05/25 03:57:44;;;;;;;22.88;20.67;;;9.60;99.90;;;;;;5028256;28;20049;-71
2022/05/25 04:00:11;;;;;;;24.75;22.45;;;9.60;99.90;;;;;;4994910;28;20076;-71
2022/05/25 04:02:37;;;;;;;25.05;22.40;;;9.60;99.90;;;;;;5024610;28;20049;-72
2022/05/25 04:05:09;;;;;;;24.38;22.08;;;9.60;99.90;;;;;;5011136;28;20041;-72
2022/05/25 04:07:44;;;;;;;21.55;19.58;;;9.60;99.90;;;;;;5026512;28;20048;-72
2022/05/25 04:10:16;;;;;;;21.73;19.67;;;9.60;99.90;;;;;;5027931;28;20049;-72
2022/05/25 04:12:43;;;;;;;21.75;19.75;;;9.70;99.90;;;;;;5028210;28;20864;-72
2022/05/25 04:15:12;;;;;;;22.70;20.20;;;9.70;99.90;;;;;;5011473;28;20059;-72
2022/05/25 04:17:38;;;;;;;22.58;20.38;;;9.70;99.90;;;;;;5011342;28;20527;-72
2022/05/25 04:20:05;;;;;;;22.55;20.35;;;9.70;99.90;;;;;;5011036;28;20138;-72
2022/05/25 04:22:32;;;;;;;21.90;19.85;;;9.80;99.90;;;;;;5025696;28;20085;-72
2022/05/25 04:25:02;;;;;;;23.33;21.02;;;9.70;99.90;;;;;;5028180;28;20162;-72
2022/05/25 04:27:28;;;;;;;22.17;20.02;;;9.80;99.90;;;;;;5011659;28;20045;-72
2022/05/25 04:29:54;;;;;;;22.63;20.42;;;9.80;99.90;;;;;;5011849;28;20124;-72
2022/05/25 04:32:20;;;;;;;22.02;19.92;;;9.80;99.90;;;;;;5011320;28;20053;-72
2022/05/25 04:34:46;;;;;;;22.45;20.38;;;9.90;99.90;;;;;;5028126;28;20045;-72
2022/05/25 04:39:56;;;;;;;21.90;19.85;;;9.90;99.90;;;;;;5027289;28;20041;-72
2022/05/25 04:42:28;;;;;;;22.40;20.13;;;9.90;99.90;;;;;;4993987;28;20056;-72
2022/05/25 04:45:00;;;;;;;21.60;19.48;;;10.00;99.90;;;;;;5010680;28;20046;-72
2022/05/25 04:47:33;;;;;;;21.95;19.77;;;10.10;99.90;;;;;;5026803;28;20050;-72
2022/05/25 04:50:00;;;;;;;21.77;19.67;;;10.10;99.90;;;;;;5026984;28;20045;-72
2022/05/25 04:52:27;;;;;;;23.90;21.63;;;10.20;99.90;;;;;;5010755;28;20041;-71
2022/05/25 04:54:53;;;;;;;24.35;21.88;;;10.20;99.90;;;;;;5011228;28;20045;-72
2022/05/25 04:57:23;;;;;;;22.38;20.08;;;10.30;99.90;;;;;;5026331;28;20041;-72
2022/05/25 04:59:55;;;;;;;21.85;19.77;;;10.30;99.90;;;;;;5018097;28;20050;-72
2022/05/25 05:02:21;;;;;;;21.83;19.77;;;10.40;99.90;;;;;;4988000;28;20387;-72
2022/05/25 05:04:51;;;;;;;22.27;20.08;;;10.40;99.90;;;;;;5013080;28;20042;-72
2022/05/25 05:07:16;;;;;;;21.92;19.92;;;10.50;99.90;;;;;;5015628;28;20072;-72
2022/05/25 05:09:45;;;;;;;21.77;19.67;;;10.50;99.90;;;;;;5008467;28;20120;-72
2022/05/25 05:12:13;;;;;;;21.25;19.10;;;10.60;99.90;;;;;;5035871;28;20042;-71
2022/05/25 05:14:39;;;;;;;23.05;20.65;;;10.60;99.90;;;;;;4994691;28;20106;-71
2022/05/25 05:17:07;;;;;;;21.65;19.65;;;10.70;99.90;;;;;;4993807;28;20041;-72
2022/05/25 05:19:33;;;;;;;22.33;20.20;;;10.70;99.90;;;;;;5006840;28;20045;-71
2022/05/25 05:21:59;;;;;;;22.95;20.70;;;10.80;99.90;;;;;;4990998;28;20059;-71
2022/05/25 05:24:26;;;;;;;23.13;21.02;;;10.80;99.90;;;;;;5001285;28;20057;-71
2022/05/25 05:26:52;;;;;;;20.88;18.67;;;10.90;99.90;;;;;;5008946;28;20064;-72
2022/05/25 05:29:19;;;;;;;22.48;20.27;;;10.90;99.90;;;;;;5008836;28;20049;-70
2022/05/25 05:31:44;;;;;;;23.00;20.58;;;10.90;99.90;;;;;;5006963;28;20222;-70
2022/05/25 05:34:10;;;;;;;22.38;20.27;;;11.00;99.90;;;;;;5021497;28;20547;-70
2022/05/25 05:36:42;;;;;;;21.58;19.48;;;11.10;99.90;;;;;;5002942;28;20037;-70
2022/05/25 05:39:10;;;;;;;21.50;19.55;;;11.10;99.90;;;;;;5003113;28;20050;-70
2022/05/25 05:41:50;;;;;;;22.85;20.48;;;11.20;99.90;;;;;;5020411;28;20053;-70
2022/05/25 05:44:22;;;;;;;21.65;19.55;;;11.30;99.90;;;;;;5022873;28;20207;-70
2022/05/25 05:46:50;;;;;;;22.20;19.95;;;11.30;99.90;;;;;;5037766;28;20045;-70
2022/05/25 05:49:16;;;;;;;21.83;19.63;;;11.40;99.90;;;;;;5007501;28;20053;-70
2022/05/25 05:51:42;;;;;;;22.52;20.05;;;11.40;99.90;;;;;;5025238;28;20405;-70
2022/05/25 05:54:08;;;;;;;20.60;18.60;;;11.50;99.90;;;;;;5007586;28;20045;-71
2022/05/25 05:56:35;;;;;;;20.73;18.65;;;11.60;99.90;;;;;;4992817;28;20052;-71
2022/05/25 05:59:01;;;;;;;19.77;17.80;;;11.60;99.90;;;;;;5026288;28;20037;-69
2022/05/25 06:01:27;;;;;;;22.35;19.05;;;11.70;99.90;;;;;;5009650;28;20381;-69
2022/05/25 06:03:53;;;;;;;20.55;18.52;;;11.80;99.90;;;;;;4992895;28;20033;-71
2022/05/25 06:06:19;;;;;;;19.65;17.75;;;11.80;99.90;;;;;;4994073;28;20083;-71
2022/05/25 06:08:46;;;;;;;19.45;17.52;;;11.90;99.90;;;;;;4993255;28;20300;-71
2022/05/25 06:11:15;;;;;;;19.15;17.27;;;11.90;99.90;;;;;;5026551;28;20080;-71
2022/05/25 06:13:41;;;;;;;19.95;17.95;;;12.00;99.90;;;;;;5009131;28;20041;-71
2022/05/25 06:21:36;;;;;;;20.50;18.60;;;12.20;99.90;;;;;;5025625;28;20057;-71
2022/05/25 06:24:02;;;;;;;19.70;17.55;;;12.30;99.90;;;;;;5008626;28;20115;-70
2022/05/25 06:26:30;;;;;;;20.27;17.95;;;12.40;99.90;;;;;;5008626;28;20046;-71
2022/05/25 06:29:01;;;;;;;19.63;17.65;;;12.40;99.90;;;;;;5008430;28;20103;-71
2022/05/25 06:31:28;;;;;;;19.45;17.48;;;12.50;99.90;;;;;;5008953;28;20132;-70
2022/05/25 06:33:54;;;;;;;20.17;17.65;;;12.60;99.90;;;;;;5008980;28;20045;-70
2022/05/25 06:36:23;;;;;;;19.50;17.38;;;12.70;99.90;;;;;;5008876;28;20136;-71
2022/05/25 06:38:49;;;;;;;19.00;17.10;;;12.80;99.90;;;;;;5025517;28;20064;-71
2022/05/25 06:41:15;;;;;;;18.50;16.17;;;12.80;99.90;;;;;;5008963;28;20052;-71
2022/05/25 06:43:41;;;;;;;19.75;16.45;;;12.90;99.90;;;;;;5022847;28;20069;-71
2022/05/25 06:46:08;;;;;;;18.85;15.68;;;13.00;99.90;;;;;;5009347;28;20053;-71
2022/05/25 06:48:34;;;;;;;19.63;16.65;;;13.10;99.90;;;;;;5025083;28;20046;-71
2022/05/25 06:51:31;;;;;;;17.75;15.90;;;13.20;99.90;;;;;;4991544;28;20044;-71
2022/05/25 06:53:58;;;;;;;16.48;14.38;;;13.30;99.90;;;;;;5000460;28;20108;-71
2022/05/25 06:56:24;;;;;;;16.23;14.52;;;13.40;99.90;;;;;;5008814;28;20112;-71
2022/05/25 06:58:54;;;;;;;15.52;13.93;;;13.50;99.90;;;;;;5008988;28;20041;-71
2022/05/25 07:01:22;;;;;;;16.83;15.10;;;13.60;99.90;;;;;;5008538;28;20037;-72
2022/05/25 07:03:49;;;;;;;15.65;13.88;;;13.60;99.90;;;;;;4991190;28;20068;-70
2022/05/25 07:06:17;;;;;;;15.20;13.45;;;13.70;99.90;;;;;;5010104;28;20456;-71
2022/05/25 07:08:44;;;;;;;15.35;13.77;;;13.80;99.90;;;;;;5013063;28;20052;-71
2022/05/25 07:11:11;;;;;;;16.92;14.38;;;13.90;99.90;;;;;;5029402;28;20044;-71
2022/05/25 07:13:37;;;;;;;15.70;14.20;;;14.00;99.90;;;;;;5026744;28;20059;-71
2022/05/25 07:16:10;;;;;;;15.63;13.73;;;14.10;99.90;;;;;;5012974;28;20040;-71
2022/05/25 07:18:36;;;;;;;14.50;12.43;;;14.20;99.90;;;;;;5012748;28;20403;-71
2022/05/25 07:21:08;;;;;;;14.25;12.82;;;14.40;99.90;;;;;;5012817;28;20060;-71
2022/05/25 07:23:39;;;;;;;14.85;12.77;;;14.50;99.90;;;;;;5028580;28;20088;-71
2022/05/25 07:26:06;;;;;;;14.73;12.75;;;14.50;99.90;;;;;;5027577;28;20048;-70
2022/05/25 07:28:33;;;;;;;13.15;11.85;;;14.60;99.90;;;;;;5026815;28;20045;-71
2022/05/25 07:31:05;;;;;;;13.00;11.00;;;14.70;99.90;;;;;;4995126;28;20041;-71
2022/05/25 07:33:32;;;;;;;14.43;12.95;;;14.80;99.90;;;;;;5042538;28;20416;-71
2022/05/25 07:35:58;;;;;;;11.00;9.82;;;15.00;99.90;;;;;;5029509;28;20416;-71
2022/05/25 07:38:25;;;;;;;11.30;10.20;;;15.10;99.90;;;;;;5011957;28;20041;-71
2022/05/25 07:40:51;;;;;;;13.98;11.30;;;15.20;99.90;;;;;;5028851;28;20487;-70
2022/05/25 07:43:22;;;;;;;11.93;10.70;;;15.30;99.90;;;;;;4995630;28;20514;-71
2022/05/25 07:45:48;;;;;;;11.55;10.35;;;15.40;99.90;;;;;;5029040;28;20341;-70
2022/05/25 07:48:14;;;;;;;11.57;10.30;;;15.50;99.90;;;;;;4996152;28;20052;-70
2022/05/25 07:50:42;;;;;;;11.27;10.02;;;15.70;99.90;;;;;;5011767;28;20045;-70
2022/05/25 07:53:55;;;;;;;11.00;9.90;;;15.80;99.90;;;;;;5028432;28;20065;-71
2022/05/25 07:55:54;;;;;;;11.68;9.73;;;15.90;99.90;;;;;;5028207;28;20053;-71
2022/05/25 07:58:20;;;;;;;10.18;9.23;;;16.10;99.90;;;;;;5011240;28;20558;-71
2022/05/25 08:00:48;;;;;;;9.63;8.65;;;16.10;99.90;;;;;;5011809;28;20148;-71
2022/05/25 08:06:06;;;;;;;7.88;5.70;;;16.30;99.90;;;;;;5014546;28;20044;-71
2022/05/25 08:08:32;;;;;;;7.05;5.85;;;16.30;99.90;;;;;;4994868;28;20041;-71
2022/05/25 08:11:04;;;;;;;8.55;6.22;;;16.40;99.90;;;;;;4995557;28;20163;-71
2022/05/25 08:13:32;;;;;;;10.05;6.70;;;16.50;99.90;;;;;;5010558;28;20084;-71
2022/05/25 08:15:58;;;;;;;8.45;6.90;;;16.60;99.90;;;;;;5028370;28;20071;-71
2022/05/25 08:18:24;;;;;;;7.93;5.43;;;16.70;99.90;;;;;;5010391;28;20161;-71
2022/05/25 08:20:50;;;;;;;7.43;5.45;;;16.60;99.90;;;;;;5011487;28;20149;-71
2022/05/25 08:23:17;;;;;;;6.50;5.88;;;16.60;99.90;;;;;;4994730;28;20509;-71
2022/05/25 08:25:43;;;;;;;7.28;5.72;;;16.50;99.90;;;;;;5010856;28;20055;-71
2022/05/25 08:28:09;;;;;;;7.35;5.65;;;16.60;99.90;;;;;;5023629;28;20507;-71
2022/05/25 08:30:38;;;;;;;8.00;6.03;;;16.40;99.90;;;;;;5010027;28;20053;-71
2022/05/25 08:33:04;;;;;;;7.45;6.00;;;16.30;99.90;;;;;;5027540;28;20055;-71
2022/05/25 08:35:30;;;;;;;6.50;5.85;;;16.40;99.90;;;;;;5027548;28;20124;-72
2022/05/25 08:38:00;;;;;;;7.45;5.22;;;16.60;99.90;;;;;;5011207;28;20049;-72
2022/05/25 08:40:28;;;;;;;7.90;5.00;;;16.90;99.90;;;;;;5011261;28;20053;-71
2022/05/25 08:42:57;;;;;;;7.72;5.10;;;17.20;99.90;;;;;;5025597;28;20132;-71
2022/05/25 08:45:27;;;;;;;5.75;4.32;;;17.30;99.90;;;;;;5010478;28;20124;-71
2022/05/25 08:47:57;;;;;;;6.43;4.28;;;17.50;99.90;;;;;;5010908;28;20084;-70
2022/05/25 08:50:23;;;;;;;7.57;4.25;;;17.60;99.90;;;;;;5027496;28;20049;-70
2022/05/25 08:52:49;;;;;;;6.70;3.60;;;17.60;99.90;;;;;;5010699;28;20049;-71
2022/05/25 08:55:30;;;;;;;8.23;3.88;;;17.60;99.90;;;;;;4994686;28;20144;-71
2022/05/25 08:57:56;;;;;;;;;;;17.40;99.90;;;;;;5011544;28;20518;-71
2022/05/25 09:00:23;;;;;;;6.60;3.72;;;17.30;99.90;;;;;;5022297;28;20012;-72
2022/05/25 09:03:01;;;;;;;4.38;3.20;;;17.20;99.90;;;;;;5009032;28;20136;-71
2022/05/25 09:05:34;;;;;;;5.35;3.47;;;17.30;99.90;;;;;;5010350;28;20051;-72
2022/05/25 09:08:04;;;;;;;4.40;3.22;;;17.20;99.90;;;;;;5011063;28;20048;-72
2022/05/25 09:10:36;;;;;;;4.35;3.35;;;17.30;99.90;;;;;;5027225;28;20050;-72
2022/05/25 09:13:11;;;;;;;5.68;3.60;;;17.30;99.90;;;;;;5026268;28;20041;-72
2022/05/25 09:16:15;;;;;;;6.75;3.55;;;17.40;99.90;;;;;;5027283;28;20124;-71
2022/05/25 09:18:33;;;;;;;4.13;3.40;;;17.50;99.90;;;;;;5026868;28;20056;-70
2022/05/25 09:21:03;;;;;;;7.30;4.30;;;17.50;99.90;;;;;;5011034;28;20049;-70
2022/05/25 09:23:29;;;;;;;5.82;3.92;;;17.50;99.90;;;;;;5026879;28;20107;-71
2022/05/25 09:25:56;;;;;;;4.53;3.22;;;17.40;99.90;;;;;;5010138;28;20068;-71
2022/05/25 09:28:28;;;;;;;5.13;3.28;;;17.30;99.90;;;;;;5009902;28;20092;-71
2022/05/25 09:30:57;;;;;;;5.15;3.38;;;17.40;99.90;;;;;;5026744;28;20618;-71
2022/05/25 09:33:35;;;;;;;4.18;2.67;;;17.50;99.90;;;;;;5026628;28;20474;-71
2022/05/25 09:36:11;;;;;;;3.70;2.50;;;17.60;99.90;;;;;;5027080;28;20041;-71
2022/05/25 09:38:42;;;;;;;6.22;3.63;;;17.60;99.90;;;;;;5025795;28;20549;-72
2022/05/25 09:41:12;;;;;;;6.43;4.13;;;17.60;99.90;;;;;;5010162;28;20100;-71
2022/05/25 09:43:39;;;;;;;6.05;3.63;;;17.50;99.90;;;;;;5022182;28;20490;-72
2022/05/25 09:46:16;;;;;;;5.50;3.75;;;17.50;99.90;;;;;;4993714;28;20053;-70
2022/05/25 09:49:00;;;;;;;5.93;3.35;;;17.50;99.90;;;;;;5026216;28;20048;-71
2022/05/25 09:51:32;;;;;;;4.80;2.97;;;17.50;99.90;;;;;;5026172;28;20076;-71
2022/05/25 09:54:36;;;;;;;7.85;3.83;;;17.60;99.90;;;;;;5026054;28;20373;-71
2022/05/25 09:57:09;;;;;;;6.13;3.67;;;17.80;99.90;;;;;;5026573;28;20049;-71
2022/05/25 10:00:00;;;;;;;6.22;4.07;;;18.00;99.90;;;;;;5009410;28;20331;-70
2022/05/25 10:02:50;;;;;;;5.20;3.03;;;18.20;99.90;;;;;;5022066;28;20092;-71
2022/05/25 10:05:24;;;;;;;4.53;3.40;;;18.30;99.90;;;;;;5009274;28;20440;-71
2022/05/25 10:08:00;;;;;;;6.50;3.50;;;18.00;99.90;;;;;;5009507;28;20470;-71
2022/05/25 10:10:35;;;;;;;4.55;3.40;;;17.70;99.90;;;;;;5009175;28;20572;-71
2022/05/25 10:13:29;;;;;;;5.82;3.85;;;17.50;99.90;;;;;;5022107;28;20180;-71
2022/05/25 10:15:56;;;;;;;7.47;4.50;;;17.50;99.90;;;;;;5025587;28;20106;-71
2022/05/25 10:18:34;;;;;;;5.13;3.28;;;17.50;99.90;;;;;;5009434;28;20060;-72
2022/05/25 10:21:01;;;;;;;5.03;3.45;;;17.50;99.90;;;;;;5025432;28;20042;-71
2022/05/25 10:23:27;;;;;;;6.00;3.70;;;17.50;99.90;;;;;;5009183;28;20339;-71
2022/05/25 10:26:10;;;;;;;5.18;3.85;;;17.40;99.90;;;;;;5009143;28;20448;-72
2022/05/25 10:28:54;;;;;;;4.63;3.50;;;17.40;99.90;;;;;;5026086;28;20049;-71
2022/05/25 10:37:18;;;;;;;7.25;3.60;;;17.80;99.90;;;;;;5026506;28;20049;-71
2022/05/25 10:39:53;;;;;;;4.82;3.15;;;18.00;99.90;;;;;;5025931;28;20045;-70
2022/05/25 10:42:25;;;;;;;7.70;3.75;;;18.10;99.90;;;;;;5014906;28;20194;-71
2022/05/25 10:45:06;;;;;;;5.28;3.90;;;18.10;99.90;;;;;;5015662;28;20136;-71
2022/05/25 10:47:57;;;;;;;5.22;4.15;;;18.30;99.90;;;;;;5032107;28;20067;-70
2022/05/25 10:50:30;;;;;;;5.97;4.05;;;18.40;99.90;;;;;;5015868;28;20128;-73
2022/05/25 10:53:02;;;;;;;6.72;4.10;;;18.60;99.90;;;;;;5015617;28;20050;-70
2022/05/25 10:55:41;;;;;;;4.72;3.72;;;18.70;99.90;;;;;;5031599;28;20128;-71
2022/05/25 10:58:28;;;;;;;8.15;4.40;;;18.70;99.90;;;;;;5032420;28;20455;-71
2022/05/25 11:01:17;;;;;;;6.15;4.05;;;18.70;99.90;;;;;;5015351;28;20567;-71
2022/05/25 11:04:04;;;;;;;6.10;3.00;;;18.80;99.90;;;;;;5015470;28;20084;-71
2022/05/25 11:07:05;;;;;;;5.90;3.47;;;18.90;99.60;;;;;;5015318;28;20061;-70
2022/05/25 11:10:15;;;;;;;5.20;3.38;;;18.80;99.50;;;;;;5031804;28;20042;-71
2022/05/25 11:13:14;;;;;;;5.00;3.42;;;18.70;99.10;;;;;;4958039;28;20529;-72
2022/05/25 11:15:40;;;;;;;6.97;4.60;;;18.80;99.90;;;;;;4958649;28;20530;-72
2022/05/25 11:18:34;;;;;;;5.40;3.35;;;18.80;99.90;;;;;;4996458;28;20065;-71
2022/05/25 11:21:21;;;;;;;4.93;3.50;;;18.80;99.90;;;;;;5031709;28;20040;-71
2022/05/25 11:24:14;;;;;;;7.72;4.47;;;18.80;99.80;;;;;;4995472;28;20092;-71
2022/05/25 11:26:49;;;;;;;9.68;5.32;;;18.80;99.90;;;;;;5010102;28;20052;-71
2022/05/25 11:29:18;;;;;;;6.53;4.65;;;18.90;99.90;;;;;;5012171;28;20565;-71
2022/05/25 11:32:22;;;;;;;6.93;4.85;;;18.70;99.90;;;;;;4994982;28;20560;-71
2022/05/25 11:35:16;;;;;;;8.00;6.15;;;18.60;99.90;;;;;;4983278;28;20060;-71
2022/05/25 11:37:53;;;;;;;8.50;6.15;;;18.40;99.90;;;;;;4995579;28;20038;-72
2022/05/25 11:40:37;;;;;;;7.43;5.72;;;18.20;99.90;;;;;;4995298;28;20651;-71
2022/05/25 11:43:27;;;;;;;8.35;6.78;;;18.00;99.90;;;;;;4993821;28;20034;-71
2022/05/25 11:46:31;;;;;;;8.38;6.47;;;17.70;99.90;;;;;;5011673;28;20817;-71
2022/05/25 11:49:15;;;;;;;9.43;6.50;;;17.50;99.90;;;;;;4993445;28;20038;-70
2022/05/25 11:52:02;;;;;;;9.10;6.32;;;17.40;99.90;;;;;;4995660;28;20050;-70
2022/05/25 11:54:43;;;;;;;6.10;4.45;;;17.20;99.90;;;;;;5008186;28;20042;-71
2022/05/25 11:57:51;;;;;;;7.78;6.80;;;16.80;99.90;;;;;;4992558;28;20042;-71
2022/05/25 12:00:29;;;;;;;9.68;8.60;;;16.20;99.90;;;;;;5002767;28;20128;-71
2022/05/25 12:03:19;;;;;;;11.70;10.50;;;15.70;99.90;;;;;;5007017;28;20060;-71
2022/05/25 12:06:04;;;;;;;12.45;11.05;;;15.50;99.90;;;;;;4991904;28;20058;-71
2022/05/25 12:08:51;;;;;;;11.90;10.77;;;15.50;99.90;;;;;;4992284;28;20132;-71
2022/05/25 12:11:42;;;;;;;11.60;10.50;;;15.70;99.90;;;;;;5025150;28;20048;-72
2022/05/25 12:14:34;;;;;;;13.15;11.23;;;16.00;99.90;;;;;;5041141;28;20045;-71
2022/05/25 12:17:23;;;;;;;12.88;11.48;;;16.20;99.90;;;;;;5039593;28;20433;-71
2022/05/25 12:19:53;;;;;;;11.27;10.18;;;16.30;99.90;;;;;;5025033;28;20058;-71
2022/05/25 12:22:23;;;;;;;12.27;11.07;;;16.50;99.90;;;;;;5000856;28;20557;-71
2022/05/25 12:24:51;;;;;;;;;;;16.70;99.90;;;;;;5028661;28;20053;-71
2022/05/25 12:27:20;;;;;;;9.57;8.68;;;16.80;99.90;;;;;;5028179;28;19932;-72
2022/05/25 12:29:55;;;;;;;11.88;10.45;;;16.90;99.90;;;;;;5027900;28;20116;-71
2022/05/25 12:32:22;;;;;;;12.93;11.55;;;16.90;99.90;;;;;;5026104;28;20057;-73
2022/05/25 12:34:51;;;;;;;13.15;11.95;;;16.90;99.90;;;;;;5011134;28;20048;-72
2022/05/25 12:37:29;;;;;;;12.32;11.13;;;17.00;99.90;;;;;;5010939;28;20487;-74
2022/05/25 12:39:59;;;;;;;9.95;8.73;;;16.90;99.90;;;;;;5027308;28;20052;-71
2022/05/25 12:42:25;;;;;;;9.98;8.18;;;16.80;99.90;;;;;;5024795;28;20048;-73
2022/05/25 12:50:40;;;;;;;8.88;6.95;;;17.00;99.90;;;;;;5025250;28;20384;-71
2022/05/25 12:53:32;;;;;;;9.20;6.50;;;17.20;99.90;;;;;;5027406;28;20538;-71
2022/05/25 12:56:00;;;;;;;10.13;6.57;;;17.40;99.90;;;;;;5021796;28;20099;-71
2022/05/25 12:58:47;;;;;;;7.03;4.63;;;17.50;99.90;;;;;;5010423;28;20048;-71
2022/05/25 13:01:22;;;;;;;7.18;2.30;;;17.70;99.90;;;;;;5010376;28;20103;-72
2022/05/25 13:03:47;;;;;;;6.57;2.15;;;17.80;99.90;;;;;;5009114;28;20132;-73
2022/05/25 13:06:19;;;;;;;7.05;1.77;;;17.80;99.90;;;;;;5010444;28;20116;-71
2022/05/25 13:08:48;;;;;;;6.53;1.77;;;17.80;99.90;;;;;;5024431;28;20404;-70
2022/05/25 13:11:36;;;;;;;5.68;1.83;;;17.90;99.90;;;;;;5020802;28;20578;-70
2022/05/25 13:14:16;;;;;;;5.47;1.60;;;18.00;99.90;;;;;;5023715;28;20547;-70
2022/05/25 13:16:41;;;;;;;6.18;1.60;;;18.10;99.90;;;;;;5025310;28;20464;-70
2022/05/25 13:19:29;;;;;;;5.05;1.67;;;18.40;99.90;;;;;;5022614;28;20069;-71
2022/05/25 13:22:04;;;;;;;4.47;1.20;;;18.40;99.90;;;;;;5034917;28;20059;-70
2022/05/25 13:24:59;;;;;;;4.82;1.10;;;18.20;99.90;;;;;;5007293;28;20048;-71
2022/05/25 13:27:58;;;;;;;6.32;1.33;;;18.20;99.90;;;;;;5020597;28;20042;-72
2022/05/25 13:30:49;;;;;;;4.75;1.10;;;18.10;99.90;;;;;;5006959;28;20046;-70
2022/05/25 13:33:24;;;;;;;6.93;1.40;;;18.20;99.90;;;;;;5025185;28;20042;-71